createdAt,value
2022-09-14T00:00:38.198Z,6.00
2022-09-14T00:03:05.343Z,4.45
2022-09-14T00:05:32.511Z,6.20
2022-09-14T00:07:59.509Z,4.32
2022-09-14T00:10:26.575Z,4.38
2022-09-14T00:12:53.569Z,3.50
2022-09-14T00:15:20.560Z,4.88
2022-09-14T00:17:47.636Z,7.45
2022-09-14T00:20:14.693Z,3.88
2022-09-14T00:22:41.862Z,4.32
2022-09-14T00:25:08.985Z,4.00
2022-09-14T00:27:36.069Z,4.30
2022-09-14T00:30:03.074Z,3.75
2022-09-14T00:32:30.124Z,5.10
2022-09-14T00:34:57.136Z,3.67
2022-09-14T00:37:24.198Z,3.65
2022-09-14T00:39:51.438Z,4.35
2022-09-14T00:42:19.582Z,6.05
2022-09-14T00:44:46.621Z,4.72
2022-09-14T00:47:13.640Z,3.97
2022-09-14T00:49:40.807Z,3.83
2022-09-14T00:52:10.857Z,3.47
2022-09-14T00:54:37.938Z,4.00
2022-09-14T00:57:04.974Z,5.25
2022-09-14T00:59:31.982Z,5.97
2022-09-14T01:01:59.063Z,4.55
2022-09-14T01:04:26.355Z,5.88
2022-09-14T01:06:53.368Z,4.65
2022-09-14T01:09:20.363Z,4.07
2022-09-14T01:11:51.446Z,4.82
2022-09-14T01:14:18.888Z,4.72
2022-09-14T01:16:45.957Z,3.63
2022-09-14T01:19:13.352Z,3.90
2022-09-14T01:21:41.234Z,5.18
2022-09-14T01:24:08.493Z,4.85
2022-09-14T01:26:35.954Z,4.00
2022-09-14T01:29:03.077Z,3.92
2022-09-14T01:31:30.169Z,4.10
2022-09-14T01:33:57.194Z,4.35
2022-09-14T01:36:24.208Z,4.32
2022-09-14T01:38:51.272Z,4.45
2022-09-14T01:41:18.326Z,3.97
2022-09-14T01:43:45.326Z,3.97
2022-09-14T01:46:12.417Z,4.22
2022-09-14T01:48:39.509Z,3.60
2022-09-14T01:51:06.586Z,4.10
2022-09-14T01:53:34.818Z,4.70
2022-09-14T01:56:01.863Z,4.90
2022-09-14T01:58:28.878Z,4.35
2022-09-14T02:00:56.759Z,6.05
2022-09-14T02:03:23.855Z,4.13
2022-09-14T02:05:51.139Z,4.68
2022-09-14T02:08:18.160Z,3.88
2022-09-14T02:10:45.211Z,4.95
2022-09-14T02:13:12.336Z,4.88
2022-09-14T02:15:39.359Z,4.03
2022-09-14T02:18:06.415Z,4.20
2022-09-14T02:20:33.432Z,3.67
2022-09-14T02:23:00.444Z,3.97
2022-09-14T02:25:27.475Z,4.30
2022-09-14T02:27:54.490Z,5.53
2022-09-14T02:30:21.484Z,4.43
2022-09-14T02:32:48.479Z,3.50
2022-09-14T02:35:15.473Z,4.30
2022-09-14T02:37:42.478Z,3.83
2022-09-14T02:40:09.525Z,4.32
2022-09-14T02:42:37.204Z,4.40
2022-09-14T02:45:04.276Z,3.97
2022-09-14T02:47:31.374Z,4.15
2022-09-14T02:49:58.364Z,4.70
2022-09-14T02:52:25.364Z,3.63
2022-09-14T02:54:52.356Z,3.33
2022-09-14T02:57:19.349Z,4.10
2022-09-14T02:59:46.496Z,3.65
2022-09-14T03:02:13.640Z,4.03
2022-09-14T03:04:40.735Z,3.35
2022-09-14T03:07:08.735Z,4.32
2022-09-14T03:09:35.741Z,4.28
2022-09-14T03:12:02.751Z,4.68
2022-09-14T03:14:29.785Z,4.65
2022-09-14T03:16:56.850Z,4.40
2022-09-14T03:19:23.867Z,5.18
2022-09-14T03:21:50.864Z,4.82
2022-09-14T03:24:17.855Z,3.55
2022-09-14T03:26:45.855Z,4.70
2022-09-14T03:29:12.837Z,3.80
2022-09-14T03:31:39.907Z,3.83
2022-09-14T03:34:06.955Z,3.55
2022-09-14T03:36:33.948Z,3.17
2022-09-14T03:39:01.939Z,4.25
2022-09-14T03:41:28.981Z,4.75
2022-09-14T03:43:56.125Z,4.30
2022-09-14T03:46:23.181Z,3.58
2022-09-14T03:48:50.265Z,5.10
2022-09-14T03:51:17.288Z,3.95
2022-09-14T03:53:45.170Z,4.00
2022-09-14T03:56:12.733Z,3.75
2022-09-14T03:58:39.735Z,4.07
2022-09-14T04:01:06.832Z,3.63
2022-09-14T04:03:33.847Z,5.18
2022-09-14T04:06:00.895Z,6.00
2022-09-14T04:08:27.948Z,4.45
2022-09-14T04:10:54.978Z,4.10
2022-09-14T04:13:21.967Z,3.90
2022-09-14T04:15:49.012Z,4.80
2022-09-14T04:18:16.036Z,3.80
2022-09-14T04:20:43.185Z,5.10
2022-09-14T04:23:10.198Z,3.47
2022-09-14T04:25:37.191Z,5.18
2022-09-14T04:28:19.711Z,4.75
2022-09-14T04:30:47.683Z,4.97
2022-09-14T04:33:14.689Z,3.50
2022-09-14T04:35:41.690Z,4.35
2022-09-14T04:38:08.686Z,3.85
2022-09-14T04:40:35.723Z,4.30
2022-09-14T04:43:02.711Z,5.07
2022-09-14T04:45:29.791Z,3.55
2022-09-14T04:47:56.831Z,3.97
2022-09-14T04:50:23.832Z,4.85
2022-09-14T04:52:50.896Z,3.40
2022-09-14T04:55:17.967Z,4.82
2022-09-14T04:57:44.959Z,3.80
2022-09-14T05:00:11.958Z,3.60
2022-09-14T05:02:39.141Z,4.03
2022-09-14T05:05:07.178Z,4.40
2022-09-14T05:07:34.318Z,4.13
2022-09-14T05:10:01.498Z,4.05
2022-09-14T05:12:28.683Z,4.30
2022-09-14T05:14:55.865Z,4.90
2022-09-14T05:17:22.997Z,5.78
2022-09-14T05:19:50.174Z,4.35
2022-09-14T05:22:17.497Z,4.68
2022-09-14T05:24:44.647Z,3.72
2022-09-14T05:27:11.779Z,5.18
2022-09-14T05:29:40.354Z,4.90
2022-09-14T05:32:07.479Z,8.85
2022-09-14T05:34:34.967Z,6.07
2022-09-14T05:37:02.277Z,9.32
2022-09-14T05:39:29.473Z,7.00
2022-09-14T05:41:56.675Z,4.28
2022-09-14T05:44:23.895Z,7.43
2022-09-14T05:46:51.858Z,7.85
2022-09-14T05:49:19.111Z,7.05
2022-09-14T05:51:46.242Z,6.30
2022-09-14T05:54:15.551Z,9.57
2022-09-14T05:56:42.744Z,8.40
2022-09-14T05:59:10.993Z,7.43
2022-09-14T06:01:38.135Z,9.00
2022-09-14T06:04:05.364Z,10.57
2022-09-14T06:06:32.550Z,9.05
2022-09-14T06:08:59.745Z,7.28
2022-09-14T06:11:26.973Z,10.40
2022-09-14T06:13:54.522Z,9.82
2022-09-14T06:16:21.727Z,7.78
2022-09-14T06:18:48.894Z,8.57
2022-09-14T06:21:16.874Z,11.20
2022-09-14T06:23:44.120Z,7.90
2022-09-14T06:26:11.322Z,11.77
2022-09-14T06:28:38.397Z,17.83
2022-09-14T06:31:07.694Z,10.25
2022-09-14T06:33:34.956Z,21.05
2022-09-14T06:36:02.132Z,21.20
2022-09-14T06:38:29.225Z,42.05
2022-09-14T06:40:57.193Z,42.33
2022-09-14T06:43:24.299Z,44.92
2022-09-14T06:45:51.398Z,79.75
2022-09-14T06:48:18.583Z,74.85
2022-09-14T06:50:45.931Z,84.20
2022-09-14T06:53:13.170Z,69.22
2022-09-14T06:55:40.408Z,106.25
2022-09-14T06:58:09.602Z,100.45
2022-09-14T07:00:36.832Z,75.75
2022-09-14T07:03:04.058Z,84.53
2022-09-14T07:05:31.206Z,82.93
2022-09-14T07:07:58.355Z,84.45
2022-09-14T07:10:28.211Z,68.28
2022-09-14T07:12:55.483Z,74.00
2022-09-14T07:15:22.641Z,65.03
2022-09-14T07:17:49.803Z,64.30
2022-09-14T07:20:17.003Z,58.13
2022-09-14T07:22:44.150Z,69.53
2022-09-14T07:25:11.525Z,49.00
2022-09-14T07:27:39.634Z,65.10
2022-09-14T07:30:06.741Z,48.50
2022-09-14T07:32:33.832Z,62.38
2022-09-14T07:35:01.139Z,44.55
2022-09-14T07:37:28.310Z,41.45
2022-09-14T07:39:55.596Z,38.15
2022-09-14T07:42:22.931Z,37.83
2022-09-14T07:44:50.094Z,40.25
2022-09-14T07:47:17.208Z,38.28
2022-09-14T07:49:44.327Z,47.60
2022-09-14T07:52:11.409Z,43.75
2022-09-14T07:54:38.575Z,35.67
2022-09-14T07:57:05.695Z,32.60
2022-09-14T07:59:37.229Z,35.65
2022-09-14T08:02:04.969Z,29.85
2022-09-14T08:04:32.167Z,30.02
2022-09-14T08:06:59.246Z,31.90
2022-09-14T08:09:26.972Z,27.73
2022-09-14T08:11:54.030Z,35.53
2022-09-14T08:14:21.155Z,25.50
2022-09-14T08:16:48.478Z,23.13
2022-09-14T08:19:16.711Z,17.33
2022-09-14T08:21:46.855Z,29.48
2022-09-14T08:24:14.689Z,27.27
2022-09-14T08:26:41.988Z,22.92
2022-09-14T08:29:09.137Z,15.20
2022-09-14T08:31:36.296Z,21.10
2022-09-14T08:34:03.801Z,19.67
2022-09-14T08:36:31.509Z,27.05
2022-09-14T08:38:59.193Z,17.58
2022-09-14T08:41:26.338Z,14.13
2022-09-14T08:43:53.569Z,18.52
2022-09-14T08:46:20.715Z,11.85
2022-09-14T08:48:48.599Z,14.38
2022-09-14T08:51:15.690Z,20.92
2022-09-14T08:53:42.870Z,15.18
2022-09-14T08:56:10.123Z,16.30
2022-09-14T08:58:43.954Z,15.15
2022-09-14T09:01:13.554Z,19.45
2022-09-14T09:03:40.751Z,15.85
2022-09-14T09:06:08.030Z,20.55
2022-09-14T09:08:35.116Z,14.15
2022-09-14T09:11:02.278Z,13.02
2022-09-14T09:13:29.435Z,13.35
2022-09-14T09:15:56.718Z,12.15
2022-09-14T09:18:23.947Z,11.63
2022-09-14T09:20:51.050Z,12.25
2022-09-14T09:23:18.191Z,14.80
2022-09-14T09:25:45.286Z,12.65
2022-09-14T09:28:12.385Z,9.93
2022-09-14T09:30:40.886Z,12.27
2022-09-14T09:33:08.120Z,12.88
2022-09-14T09:35:35.212Z,9.70
2022-09-14T09:38:02.317Z,10.88
2022-09-14T09:40:29.745Z,10.90
2022-09-14T09:42:56.959Z,11.98
2022-09-14T09:45:24.089Z,9.35
2022-09-14T09:47:51.239Z,9.77
2022-09-14T09:50:18.451Z,9.70
2022-09-14T09:52:45.567Z,12.13
2022-09-14T09:55:13.130Z,9.15
2022-09-14T09:57:40.798Z,8.45
2022-09-14T10:00:07.979Z,10.00
2022-09-14T10:02:35.223Z,8.90
2022-09-14T10:05:02.502Z,8.63
2022-09-14T10:07:29.692Z,7.38
2022-09-14T10:09:56.780Z,11.60
2022-09-14T10:12:24.010Z,9.13
2022-09-14T10:14:51.306Z,10.00
2022-09-14T10:17:18.466Z,9.38
2022-09-14T10:19:45.532Z,7.22
2022-09-14T10:22:16.675Z,7.35
2022-09-14T10:24:44.390Z,9.27
2022-09-14T10:27:11.482Z,9.05
2022-09-14T10:29:38.675Z,12.18
2022-09-14T10:32:05.939Z,9.30
2022-09-14T10:34:33.924Z,7.72
2022-09-14T10:37:01.000Z,9.52
2022-09-14T10:39:28.199Z,11.10
2022-09-14T10:41:55.302Z,6.28
2022-09-14T10:44:22.860Z,11.63
2022-09-14T10:46:50.645Z,8.18
2022-09-14T10:49:20.697Z,10.82
2022-09-14T10:51:47.829Z,8.18
2022-09-14T10:54:15.116Z,7.45
2022-09-14T10:56:42.287Z,8.27
2022-09-14T10:59:09.420Z,8.15
2022-09-14T11:01:36.691Z,8.73
2022-09-14T11:04:03.826Z,8.25
2022-09-14T11:06:30.992Z,9.40
2022-09-14T11:08:58.083Z,9.07
2022-09-14T11:11:25.129Z,8.52
2022-09-14T11:13:52.226Z,11.55
2022-09-14T11:16:19.340Z,8.65
2022-09-14T11:18:46.463Z,9.40
2022-09-14T11:21:13.642Z,8.10
2022-09-14T11:23:40.739Z,8.88
2022-09-14T11:26:07.789Z,9.55
2022-09-14T11:28:35.102Z,6.90
2022-09-14T11:31:02.276Z,8.85
2022-09-14T11:33:31.383Z,6.57
2022-09-14T11:35:58.823Z,6.55
2022-09-14T11:38:25.941Z,9.35
2022-09-14T11:40:53.116Z,6.20
2022-09-14T11:43:20.225Z,6.72
2022-09-14T11:45:47.315Z,7.55
2022-09-14T11:48:41.335Z,7.78
2022-09-14T11:51:01.503Z,9.02
2022-09-14T11:53:29.247Z,12.75
2022-09-14T11:55:56.271Z,9.73
2022-09-14T11:58:23.680Z,11.55
2022-09-14T12:00:50.738Z,10.27
2022-09-14T12:03:18.049Z,7.60
2022-09-14T12:05:45.324Z,10.82
2022-09-14T12:08:12.373Z,10.18
2022-09-14T12:10:42.795Z,6.40
2022-09-14T12:13:12.395Z,7.18
2022-09-14T12:15:41.167Z,7.15
2022-09-14T12:18:08.360Z,7.25
2022-09-14T12:20:35.511Z,8.55
2022-09-14T12:23:02.586Z,11.60
2022-09-14T12:25:32.157Z,9.75
2022-09-14T12:27:59.255Z,7.20
2022-09-14T12:30:26.352Z,9.25
2022-09-14T12:32:53.498Z,7.93
2022-09-14T12:35:20.544Z,8.25
2022-09-14T12:37:47.800Z,9.82
2022-09-14T12:40:14.999Z,9.07
2022-09-14T12:42:42.173Z,9.13
2022-09-14T12:45:09.247Z,7.30
2022-09-14T12:47:36.441Z,8.00
2022-09-14T12:50:03.524Z,6.75
2022-09-14T12:52:30.614Z,8.32
2022-09-14T12:54:57.685Z,6.57
2022-09-14T12:57:24.782Z,9.90
2022-09-14T12:59:51.869Z,6.28
2022-09-14T13:02:19.221Z,6.55
2022-09-14T13:04:48.553Z,6.78
2022-09-14T13:07:15.810Z,4.50
2022-09-14T13:09:42.910Z,13.82
2022-09-14T13:12:10.162Z,4.93
2022-09-14T13:14:37.341Z,7.60
2022-09-14T13:17:04.697Z,6.00
2022-09-14T13:19:31.894Z,8.40
2022-09-14T13:21:59.031Z,4.72
2022-09-14T13:24:26.227Z,8.88
2022-09-14T13:26:53.384Z,7.72
2022-09-14T13:29:20.780Z,6.40
2022-09-14T13:31:48.085Z,6.88
2022-09-14T13:34:15.287Z,5.35
2022-09-14T13:36:42.498Z,6.93
2022-09-14T13:39:09.774Z,6.97
2022-09-14T13:41:37.006Z,7.53
2022-09-14T13:44:04.152Z,6.05
2022-09-14T13:46:31.323Z,7.93
2022-09-14T13:48:58.645Z,5.45
2022-09-14T13:51:25.977Z,5.10
2022-09-14T13:53:53.373Z,6.43
2022-09-14T13:56:20.572Z,7.70
2022-09-14T13:58:47.742Z,10.45
2022-09-14T14:01:14.912Z,7.22
2022-09-14T14:03:42.154Z,6.22
2022-09-14T14:06:09.247Z,14.82
2022-09-14T14:08:36.454Z,16.88
2022-09-14T14:11:03.668Z,7.65
2022-09-14T14:13:31.768Z,12.50
2022-09-14T14:15:59.337Z,6.45
2022-09-14T14:18:26.512Z,7.78
2022-09-14T14:20:53.639Z,10.43
2022-09-14T14:23:21.757Z,8.95
2022-09-14T14:25:49.062Z,8.60
2022-09-14T14:28:16.249Z,13.77
2022-09-14T14:30:43.609Z,8.77
2022-09-14T14:33:10.828Z,6.90
2022-09-14T14:35:37.967Z,3.35
2022-09-14T14:38:05.040Z,4.53
2022-09-14T14:40:33.503Z,6.80
2022-09-14T14:43:01.750Z,6.40
2022-09-14T14:45:35.399Z,6.15
2022-09-14T14:48:03.485Z,5.27
2022-09-14T14:50:30.708Z,6.57
2022-09-14T14:52:58.679Z,8.23
2022-09-14T14:55:27.521Z,6.78
2022-09-14T14:57:54.588Z,8.85
2022-09-14T15:00:21.667Z,6.97
2022-09-14T15:02:49.128Z,8.30
2022-09-14T15:05:18.575Z,5.03
2022-09-14T15:07:45.846Z,6.25
2022-09-14T15:24:29.495Z,6.00
2022-09-14T15:26:57.744Z,5.38
2022-09-14T15:29:24.988Z,6.17
2022-09-14T15:31:52.313Z,7.88
2022-09-14T15:34:19.686Z,6.35
2022-09-14T15:36:53.135Z,8.65
2022-09-14T15:39:20.519Z,9.77
2022-09-14T15:41:47.785Z,5.70
2022-09-14T15:44:15.848Z,6.57
2022-09-14T15:46:54.047Z,6.72
2022-09-14T15:49:21.431Z,6.20
2022-09-14T15:51:48.895Z,5.47
2022-09-14T15:54:16.152Z,5.15
2022-09-14T15:56:43.398Z,5.57
2022-09-14T15:59:10.714Z,5.72
2022-09-14T16:01:38.216Z,6.05
2022-09-14T16:04:09.529Z,4.25
2022-09-14T16:06:38.779Z,6.85
2022-09-14T16:09:06.054Z,6.30
2022-09-14T16:11:33.399Z,7.57
2022-09-14T16:14:01.010Z,6.15
2022-09-14T16:16:28.260Z,4.07
2022-09-14T16:18:56.441Z,4.78
2022-09-14T16:21:23.676Z,4.13
2022-09-14T16:23:51.161Z,6.82
2022-09-14T16:26:18.500Z,4.25
2022-09-14T16:28:45.734Z,6.38
2022-09-14T16:31:13.007Z,4.80
2022-09-14T16:33:40.365Z,6.88
2022-09-14T16:36:07.811Z,7.03
2022-09-14T16:38:37.558Z,3.30
2022-09-14T16:41:07.393Z,4.28
2022-09-14T16:43:34.631Z,5.13
2022-09-14T16:46:01.966Z,4.50
2022-09-14T16:48:30.274Z,4.35
2022-09-14T16:50:57.567Z,5.10
2022-09-14T16:53:25.460Z,6.68
2022-09-14T16:55:52.684Z,6.07
2022-09-14T16:58:20.344Z,8.20
2022-09-14T17:00:47.907Z,5.15
2022-09-14T17:03:15.182Z,4.32
2022-09-14T17:05:42.419Z,3.53
2022-09-14T17:08:09.650Z,3.50
2022-09-14T17:10:37.019Z,4.05
2022-09-14T17:13:04.318Z,4.55
2022-09-14T17:15:31.593Z,4.57
2022-09-14T17:17:58.860Z,4.78
2022-09-14T17:20:26.100Z,3.72
2022-09-14T17:22:54.100Z,5.03
2022-09-14T17:25:24.914Z,5.70
2022-09-14T17:27:52.221Z,3.00
2022-09-14T17:30:19.519Z,4.03
2022-09-14T17:32:46.779Z,3.47
2022-09-14T17:35:14.211Z,6.20
2022-09-14T17:37:41.474Z,4.30
2022-09-14T17:40:10.932Z,5.05
2022-09-14T17:42:38.209Z,3.17
2022-09-14T17:45:06.637Z,3.22
2022-09-14T17:47:33.983Z,4.50
2022-09-14T17:50:01.742Z,4.28
2022-09-14T17:52:29.134Z,4.97
2022-09-14T17:54:56.348Z,5.15
2022-09-14T17:57:24.328Z,4.68
2022-09-14T17:59:51.578Z,4.25
2022-09-14T18:02:20.280Z,3.80
2022-09-14T18:04:48.631Z,3.70
2022-09-14T18:07:18.631Z,3.03
2022-09-14T18:09:45.909Z,3.50
2022-09-14T18:12:16.021Z,4.78
2022-09-14T18:14:43.263Z,3.15
2022-09-14T18:17:10.601Z,3.33
2022-09-14T18:19:37.905Z,4.43
2022-09-14T18:22:07.655Z,3.53
2022-09-14T18:24:34.872Z,4.78
2022-09-14T18:27:02.078Z,4.82
2022-09-14T18:29:30.325Z,3.72
2022-09-14T18:31:57.729Z,4.07
2022-09-14T18:34:25.125Z,4.47
2022-09-14T18:37:17.282Z,4.75
2022-09-14T18:39:44.797Z,4.82
2022-09-14T18:42:12.178Z,5.32
2022-09-14T18:44:39.656Z,5.22
2022-09-14T18:47:11.720Z,5.40
2022-09-14T18:49:38.977Z,4.60
2022-09-14T18:52:06.350Z,4.47
2022-09-14T18:54:36.258Z,3.75
2022-09-14T18:57:03.496Z,5.18
2022-09-14T18:59:31.420Z,3.67
2022-09-14T19:02:08.064Z,3.25
2022-09-14T19:04:35.383Z,4.07
2022-09-14T19:07:02.655Z,4.47
2022-09-14T19:09:29.916Z,3.95
2022-09-14T19:12:00.623Z,3.90
2022-09-14T19:14:27.977Z,3.88
2022-09-14T19:16:55.238Z,3.25
2022-09-14T19:19:23.445Z,2.90
2022-09-14T19:21:50.778Z,3.72
2022-09-14T19:24:18.073Z,4.88
2022-09-14T19:26:45.726Z,5.10
2022-09-14T19:29:13.092Z,3.33
2022-09-14T19:31:40.334Z,3.88
2022-09-14T19:34:07.688Z,3.25
2022-09-14T19:36:35.101Z,4.47
2022-09-14T19:39:02.304Z,5.00
2022-09-14T19:41:29.635Z,3.42
2022-09-14T19:43:57.062Z,4.05
2022-09-14T19:46:24.714Z,4.43
2022-09-14T19:48:52.107Z,3.53
2022-09-14T19:51:19.341Z,3.53
2022-09-14T19:53:46.580Z,3.63
2022-09-14T19:56:13.893Z,3.55
2022-09-14T19:58:41.184Z,3.78
2022-09-14T20:01:08.652Z,2.47
2022-09-14T20:03:37.131Z,3.35
2022-09-14T20:06:04.382Z,4.32
2022-09-14T20:08:31.589Z,5.55
2022-09-14T20:10:58.880Z,2.90
2022-09-14T20:13:26.143Z,5.07
2022-09-14T20:15:53.459Z,5.75
2022-09-14T20:18:20.789Z,3.38
2022-09-14T20:20:48.299Z,4.95
2022-09-14T20:23:15.531Z,3.20
2022-09-14T20:25:42.744Z,3.33
2022-09-14T20:28:09.967Z,4.45
2022-09-14T20:30:37.345Z,4.55
2022-09-14T20:33:04.571Z,5.35
2022-09-14T20:35:31.868Z,4.97
2022-09-14T20:38:00.676Z,4.88
2022-09-14T20:40:27.962Z,3.72
2022-09-14T20:42:55.221Z,2.30
2022-09-14T20:45:22.598Z,4.38
2022-09-14T20:47:49.840Z,3.10
2022-09-14T20:50:17.091Z,4.25
2022-09-14T20:52:44.434Z,2.65
2022-09-14T20:55:11.724Z,3.13
2022-09-14T20:57:39.008Z,3.28
2022-09-14T21:00:06.432Z,3.08
2022-09-14T21:02:33.770Z,3.63
2022-09-14T21:05:01.092Z,4.28
2022-09-14T21:07:28.403Z,3.17
2022-09-14T21:09:55.844Z,3.80
2022-09-14T21:12:23.239Z,3.28
2022-09-14T21:14:50.506Z,3.58
2022-09-14T21:17:18.378Z,4.20
2022-09-14T21:19:45.648Z,4.20
2022-09-14T21:22:12.924Z,2.50
2022-09-14T21:24:40.235Z,3.30
2022-09-14T21:27:07.919Z,2.47
2022-09-14T21:29:35.162Z,2.90
2022-09-14T21:32:06.843Z,4.25
2022-09-14T21:34:36.061Z,4.15
2022-09-14T21:37:03.288Z,4.20
2022-09-14T21:39:30.563Z,3.40
2022-09-14T21:41:59.424Z,2.88
2022-09-14T21:44:26.859Z,1.90
2022-09-14T21:46:54.118Z,2.30
2022-09-14T21:49:24.431Z,1.98
2022-09-14T21:51:51.678Z,2.65
2022-09-14T21:54:18.931Z,2.40
2022-09-14T21:56:46.560Z,2.55
2022-09-14T21:59:14.242Z,4.60
2022-09-14T22:01:42.068Z,3.53
2022-09-14T22:04:09.548Z,2.47
2022-09-14T22:06:36.826Z,2.60
2022-09-14T22:09:04.120Z,3.25
2022-09-14T22:11:31.391Z,1.73
2022-09-14T22:13:58.710Z,2.17
2022-09-14T22:16:26.123Z,3.75
2022-09-14T22:18:53.410Z,2.50
2022-09-14T22:21:21.660Z,3.33
2022-09-14T22:23:49.152Z,3.03
2022-09-14T22:26:16.464Z,3.45
2022-09-14T22:28:43.743Z,3.28
2022-09-14T22:31:11.014Z,5.65
2022-09-14T22:33:38.312Z,2.35
2022-09-14T22:36:05.597Z,3.03
2022-09-14T22:38:32.862Z,1.85
2022-09-14T22:41:00.203Z,2.40
2022-09-14T22:43:27.476Z,3.05
2022-09-14T22:45:54.801Z,2.10
2022-09-14T22:48:22.065Z,3.25
2022-09-14T22:50:49.288Z,2.90
2022-09-14T22:53:16.620Z,2.80
2022-09-14T22:55:44.041Z,2.60
2022-09-14T22:58:11.277Z,2.40
2022-09-14T23:00:39.040Z,2.25
2022-09-14T23:03:06.296Z,2.55
2022-09-14T23:05:33.518Z,2.70
2022-09-14T23:08:00.774Z,2.40
2022-09-14T23:10:28.159Z,1.85
2022-09-14T23:12:55.643Z,2.60
2022-09-14T23:15:22.933Z,3.15
2022-09-14T23:17:52.218Z,2.92
2022-09-14T23:20:19.631Z,2.25
2022-09-14T23:22:46.875Z,2.78
2022-09-14T23:25:14.141Z,2.30
2022-09-14T23:27:41.381Z,2.58
2022-09-14T23:30:08.587Z,1.63
2022-09-14T23:32:35.902Z,2.00
2022-09-14T23:35:03.140Z,3.90
2022-09-14T23:37:30.429Z,2.47
2022-09-14T23:39:57.749Z,1.83
2022-09-14T23:42:25.071Z,2.47
2022-09-14T23:44:52.325Z,1.85
2022-09-14T23:47:19.608Z,2.10
2022-09-14T23:49:46.871Z,2.42
2022-09-14T23:52:14.062Z,2.40
2022-09-14T23:54:41.306Z,1.92
2022-09-14T23:57:08.555Z,2.92
2022-09-14T23:59:35.792Z,2.63
